Latest Weather Observations for Parafield

IDS60801

Issued at 12:31 am CST Wednesday 24 May 2017 (issued every 30 minutes, with the page automatically refreshed every 10 minutes)

About weather observations | Map of weather stations | Latest weather observations for SA | Other Formats
Station Details ID: 023013 Name: PARAFIELD AIRPORT Lat: -34.80 Lon: 138.63 Height: 9.5 m
Data from the previous 72 hours. | See also: Recent months at Parafield
Date/Time
CST
Temp
°C
App
Temp
°C
Dew
Point
°C
Rel
Hum
%
Delta-T
°C
Wind Press
QNH
hPa
Press
MSL
hPa
Rain since
9am
mm
Dir  Spd
km/h
Gust
km/h
Spd
kts
Gust
kts
24/12:30am 15.0 12.4 15.0 100 0.0 WNW 22 30 12 16 1017.4 1017.4 0.4
24/12:00am 15.1 12.0 14.6 97 0.3 NW 24 35 13 19 1017.4 1017.4 0.4
 
Date/Time
CST
Temp
°C
App
Temp
°C
Dew
Point
°C
Rel
Hum
%
Delta-T
°C
Wind Press
QNH
hPa
Press
MSL
hPa
Rain since
9am
mm
Dir  Spd
km/h
Gust
km/h
Spd
kts
Gust
kts
23/11:54pm 15.2 12.4 14.4 95 0.5 NW 22 35 12 19 1017.3 1017.3 0.4
23/11:30pm 15.5 13.7 14.5 94 0.6 NW 17 24 9 13 1017.3 1017.3 0.2
23/11:00pm 15.3 13.5 14.5 95 0.5 NW 17 24 9 13 1017.3 1017.3 0.2
23/10:30pm 15.0 13.1 14.2 95 0.5 NW 17 22 9 12 1017.4 1017.4 0.2
23/10:00pm 14.9 13.3 13.9 94 0.6 NW 15 20 8 11 1017.4 1017.4 0.2
23/09:30pm 14.4 13.4 13.4 94 0.6 NNW 11 15 6 8 1017.4 1017.4 0.2
23/09:00pm 14.7 13.8 13.6 93 0.6 NW 11 15 6 8 1017.4 1017.4 0.2
23/08:30pm 14.8 13.3 13.2 90 0.9 NW 13 20 7 11 1017.4 1017.4 0.2
23/08:00pm 14.8 13.0 13.3 91 0.8 NW 15 20 8 11 1017.3 1017.3 0.2
23/07:30pm 15.0 12.8 13.4 90 0.9 WNW 17 24 9 13 1017.1 1017.1 0.2
23/07:00pm 15.0 12.3 13.0 88 1.1 WNW 19 26 10 14 1016.9 1016.9 0.2
23/06:30pm 15.2 12.2 12.7 85 1.4 WNW 20 28 11 15 1016.7 1016.7 0.2
23/06:00pm 15.0 12.6 12.5 85 1.4 NW 17 32 9 17 1016.4 1016.4 0.2
23/05:30pm 14.6 14.5 13.8 95 0.4 N 7 9 4 5 1016.3 1016.3 0.2
23/05:00pm 14.6 13.9 13.3 92 0.7 NW 9 15 5 8 1016.3 1016.3 0.2
23/04:44pm 14.8 13.1 13.7 93 0.6 WNW 15 24 8 13 1016.3 1016.3 0.2
23/04:32pm 14.6 10.3 13.3 92 0.7 WNW 28 46 15 25 1016.2 1016.2 0.2
23/04:30pm 14.7 10.0 13.2 91 0.8 WNW 30 46 16 25 1016.2 1016.2 0.2
23/04:29pm 14.8 9.8 13.3 91 0.8 WNW 32 46 17 25 1016.2 1016.2 0.2
23/04:24pm 15.9 11.5 13.0 83 1.6 W 28 46 15 25 1016.2 1016.2 0.0
23/04:00pm 17.0 13.4 10.4 65 3.5 WNW 20 28 11 15 1015.7 1015.7 0.0
23/03:30pm 17.6 14.0 10.5 63 3.8 NW 20 32 11 17 1015.4 1015.4 0.0
23/03:00pm 17.6 12.7 9.8 60 4.1 WNW 26 35 14 19 1015.5 1015.5 0.0
23/02:30pm 18.9 13.4 9.1 53 5.1 NW 28 33 15 18 1015.4 1015.4 0.0
23/02:00pm 18.9 13.9 9.7 55 4.9 WNW 26 35 14 19 1015.6 1015.6 0.0
23/01:30pm 18.6 13.4 10.2 58 4.5 NW 28 35 15 19 1015.9 1015.9 0.0
23/01:00pm 18.1 13.2 11.2 64 3.7 NW 28 33 15 18 1016.2 1016.2 0.0
23/12:30pm 18.0 13.7 12.2 69 3.2 WNW 26 37 14 20 1016.5 1016.5 0.0
23/12:00pm 18.3 14.2 11.6 65 3.7 NW 24 33 13 18 1016.7 1016.7 0.0
23/11:30am 16.3 13.2 12.3 77 2.2 WNW 20 26 11 14 1017.1 1017.1 0.0
23/11:03am 17.4 16.0 14.5 83 1.7 N 15 22 8 12 1017.5 1017.5 0.0
23/11:00am 16.8 15.7 14.4 86 1.4 N 13 19 7 10 1017.4 1017.4 0.0
23/10:30am 15.5 14.2 14.9 96 0.3 N 15 20 8 11 1017.9 1017.9 0.0
23/10:17am 15.8 14.9 15.8 100 0.0 N 15 20 8 11 1018.2 1018.2 0.0
23/10:05am 15.2 14.4 15.2 100 0.0 NNW 13 20 7 11 1018.2 1018.2 0.0
23/10:00am 14.8 14.3 14.8 100 0.0 NNW 11 20 6 11 1018.2 1018.2 0.0
23/09:30am 14.0 13.2 14.0 100 0.0 N 11 15 6 8 1018.3 1018.3 0.0
23/09:00am 13.4 12.0 13.4 100 0.0 NNE 13 17 7 9 1018.2 1018.2 2.8
23/08:30am 13.2 11.7 13.2 100 0.0 N 13 15 7 8 1017.9 1017.9 2.8
23/08:00am 13.0 11.5 13.0 100 0.0 NNE 13 17 7 9 1017.3 1017.3 2.8
23/07:30am 12.8 12.0 12.8 100 0.0 NNE 9 11 5 6 1017.1 1017.1 2.8
23/07:15am 12.7 11.8 12.7 100 0.0 NNE 9 13 5 7 1017.1 1017.1 2.8
23/07:00am 12.6 11.7 12.6 100 0.0 NNE 9 13 5 7 1017.3 1017.3 2.8
23/06:46am 12.4 11.8 12.4 100 0.0 N 7 9 4 5 1017.3 1017.3 2.8
23/06:30am 12.1 11.0 12.1 100 0.0 N 9 11 5 6 1017.3 1017.3 2.8
23/06:00am 11.2 9.5 11.2 100 0.0 NE 11 13 6 7 1016.9 1016.9 2.8
23/05:30am 11.9 11.4 11.9 100 0.0 NE 6 7 3 4 1017.1 1017.1 2.8
23/05:24am 11.8 11.2 11.8 100 0.0 NNE 6 6 3 3 1017.1 1017.1 2.8
23/05:00am 11.9 11.4 11.9 100 0.0 N 6 7 3 4 1016.9 1016.9 2.8
23/04:30am 12.2 12.5 12.2 100 0.0 N 2 6 1 3 1016.3 1016.3 2.8
23/04:22am 12.1 12.0 12.1 100 0.0 N 4 7 2 4 1016.5 1016.5 2.8
23/04:00am 12.7 11.5 12.7 100 0.0 NNE 11 13 6 7 1016.3 1016.3 2.8
23/03:30am 12.7 11.8 12.7 100 0.0 N 9 11 5 6 1016.5 1016.5 2.6
23/03:00am 12.2 11.2 12.2 100 0.0 NE 9 11 5 6 1016.5 1016.5 2.6
23/02:41am 12.5 11.2 12.5 100 0.0 NNE 11 13 6 7 1016.3 1016.3 2.6
23/02:30am 12.5 11.6 12.5 100 0.0 NNE 9 13 5 7 1016.4 1016.4 2.6
23/02:00am 12.9 12.1 12.9 100 0.0 NNE 9 13 5 7 1016.5 1016.5 2.6
23/01:30am 13.4 12.8 13.4 100 0.0 N 9 13 5 7 1016.4 1016.4 2.6
23/01:00am 14.3 14.0 14.3 100 0.0 N 9 13 5 7 1016.5 1016.5 2.6
23/12:30am 14.4 13.7 14.4 100 0.0 NNE 11 13 6 7 1016.6 1016.6 2.6
23/12:00am 14.1 14.1 14.1 100 0.0 NE 7 9 4 5 1016.6 1016.6 2.6
 
Date/Time
CST
Temp
°C
App
Temp
°C
Dew
Point
°C
Rel
Hum
%
Delta-T
°C
Wind Press
QNH
hPa
Press
MSL
hPa
Rain since
9am
mm
Dir  Spd
km/h
Gust
km/h
Spd
kts
Gust
kts
22/11:30pm 14.1 14.1 14.1 100 0.0 N 7 9 4 5 1016.5 1016.5 2.6
22/11:00pm 14.4 14.1 14.4 100 0.0 NE 9 9 5 5 1016.4 1016.4 2.6
22/10:30pm 14.7 14.5 14.7 100 0.0 NE 9 11 5 6 1016.7 1016.7 2.6
22/10:00pm 15.0 14.0 14.7 98 0.2 NE 13 20 7 11 1016.6 1016.6 2.6
22/09:30pm 15.5 14.4 14.2 92 0.7 WNW 13 19 7 10 1016.4 1016.4 2.0
22/09:00pm 15.7 13.6 12.5 81 1.8 NW 15 22 8 12 1016.0 1016.0 1.0
22/08:30pm 17.1 14.9 10.7 66 3.4 N 13 15 7 8 1014.9 1014.9 0.0
22/08:00pm 18.5 16.0 9.6 56 4.7 NNW 13 19 7 10 1015.1 1015.1 0.0
22/07:30pm 18.7 15.5 9.8 56 4.7 N 17 20 9 11 1014.7 1014.7 0.0
22/07:00pm 19.2 15.5 9.4 53 5.2 N 19 24 10 13 1014.6 1014.6 0.0
22/06:30pm 19.6 15.3 9.2 51 5.5 N 22 30 12 16 1014.2 1014.2 0.0
22/06:00pm 19.8 15.1 9.1 50 5.6 N 24 32 13 17 1013.9 1013.9 0.0
22/05:30pm 19.5 16.8 9.1 51 5.5 NNW 13 22 7 12 1013.6 1013.6 0.0
22/05:00pm 19.7 17.9 9.3 51 5.5 NW 9 17 5 9 1013.6 1013.6 0.0
22/04:30pm 20.5 17.7 8.5 46 6.3 NNW 13 20 7 11 1013.3 1013.3 0.0
22/04:00pm 19.8 17.0 8.5 48 5.9 N 13 17 7 9 1012.7 1012.7 0.0
22/03:30pm 20.6 16.2 7.6 43 6.7 N 20 28 11 15 1012.0 1012.0 0.0
22/03:00pm 20.6 16.9 7.9 44 6.6 N 17 24 9 13 1011.8 1011.8 0.0
22/02:30pm 20.6 15.1 7.6 43 6.7 NNE 26 35 14 19 1011.7 1011.7 0.0
22/02:00pm 20.1 16.5 8.4 47 6.1 NNE 17 22 9 12 1012.0 1012.0 0.0
22/01:30pm 19.5 14.6 8.5 49 5.7 NNE 24 33 13 18 1012.2 1012.2 0.0
22/01:00pm 18.7 14.0 9.2 54 5.0 NE 24 32 13 17 1012.8 1012.8 0.0
22/12:30pm 18.8 14.9 9.3 54 5.0 NNE 20 28 11 15 1013.8 1013.8 0.0
22/12:00pm 19.4 15.1 7.8 47 5.9 NNE 20 26 11 14 1014.7 1014.7 0.0
22/11:30am 19.4 15.1 7.8 47 5.9 NNE 20 26 11 14 1014.9 1014.9 0.0
22/11:00am 18.8 14.6 8.2 50 5.5 NNE 20 28 11 15 1015.4 1015.4 0.0
22/10:30am 19.0 14.3 7.8 48 5.7 NNE 22 28 12 15 1015.0 1015.0 0.0
22/10:00am 18.8 13.6 7.3 47 5.8 NE 24 30 13 16 1014.8 1014.8 0.0
22/09:30am 18.4 14.6 7.5 49 5.5 NNE 17 24 9 13 1015.9 1015.9 0.0
22/09:00am 18.3 14.5 7.7 50 5.4 N 17 20 9 11 1016.7 1016.7 0.0
22/08:30am 18.5 15.4 7.3 48 5.6 N 13 17 7 9 1016.2 1016.2 0.0
22/08:00am 18.1 14.2 6.9 48 5.6 NE 17 24 9 13 1014.7 1014.7 0.0
22/07:30am 17.4 14.3 7.2 51 5.1 NE 13 20 7 11 1014.4 1014.4 0.0
22/07:00am 16.0 12.8 7.0 55 4.4 NE 13 15 7 8 1014.5 1014.5 0.0
22/06:30am 16.6 12.7 7.3 54 4.6 NE 17 22 9 12 1014.5 1014.5 0.0
22/06:00am 15.8 12.7 7.1 56 4.3 NE 13 19 7 10 1014.5 1014.5 0.0
22/05:30am 16.1 11.9 7.3 56 4.4 NE 19 22 10 12 1014.3 1014.3 0.0
22/05:00am 15.7 11.8 7.0 56 4.3 NE 17 20 9 11 1014.6 1014.6 0.0
22/04:30am 17.0 12.7 7.1 52 4.9 NNE 19 26 10 14 1014.9 1014.9 0.0
22/04:00am 15.9 11.7 7.4 57 4.2 NE 19 22 10 12 1015.0 1015.0 0.0
22/03:30am 14.7 10.9 7.5 62 3.6 NE 17 19 9 10 1015.3 1015.3 0.0
22/03:00am 14.3 10.5 7.6 64 3.3 NE 17 19 9 10 1015.5 1015.5 0.0
22/02:30am 14.2 10.4 7.5 64 3.3 NE 17 19 9 10 1015.8 1015.8 0.0
22/02:00am 14.1 9.9 7.6 65 3.2 NE 19 20 10 11 1015.9 1015.9 0.0
22/01:30am 13.2 9.8 7.6 69 2.7 NE 15 17 8 9 1016.1 1016.1 0.0
22/01:00am 14.2 10.2 8.2 67 3.0 NE 19 20 10 11 1016.2 1016.2 0.0
22/12:30am 13.6 10.4 8.4 71 2.6 NE 15 17 8 9 1016.4 1016.4 0.0
22/12:00am 14.2 10.7 8.8 70 2.7 NE 17 19 9 10 1016.6 1016.6 0.0
 
Date/Time
CST
Temp
°C
App
Temp
°C
Dew
Point
°C
Rel
Hum
%
Delta-T
°C
Wind Press
QNH
hPa
Press
MSL
hPa
Rain since
9am
mm
Dir  Spd
km/h
Gust
km/h
Spd
kts
Gust
kts
21/11:30pm 12.9 10.0 8.2 73 2.3 NE 13 15 7 8 1016.7 1016.7 0.0
21/11:00pm 13.7 10.5 8.5 71 2.6 NE 15 17 8 9 1016.7 1016.7 0.0
21/10:30pm 14.1 10.7 9.3 73 2.4 NE 17 19 9 10 1016.6 1016.6 0.0
21/10:00pm 12.7 9.6 9.0 78 1.9 NE 15 17 8 9 1016.8 1016.8 0.0
21/09:30pm 11.3 8.5 8.7 84 1.3 NE 13 13 7 7 1016.9 1016.9 0.0
21/09:00pm 11.5 9.0 8.0 79 1.7 NE 11 13 6 7 1017.0 1017.0 0.0
21/08:30pm 12.4 9.8 9.2 81 1.6 NE 13 15 7 8 1017.0 1017.0 0.0
21/08:00pm 13.0 10.7 9.1 77 2.0 NE 11 13 6 7 1016.8 1016.8 0.0
21/07:30pm 12.1 10.1 8.6 79 1.7 ENE 9 9 5 5 1016.8 1016.8 0.0
21/07:00pm 14.7 13.2 9.3 70 2.8 ENE 7 11 4 6 1016.5 1016.5 0.0
21/06:30pm 14.4 12.8 8.8 69 2.8 ENE 7 9 4 5 1016.3 1016.3 0.0
21/06:00pm 15.4 15.2 8.9 65 3.3 CALM 0 0 0 0 1016.1 1016.1 0.0
21/05:30pm 17.6 17.4 9.0 57 4.5 CALM 0 0 0 0 1015.9 1015.9 0.0
21/05:00pm 19.5 18.3 9.4 52 5.3 W 6 9 3 5 1015.7 1015.7 0.0
21/04:30pm 21.0 19.2 9.6 48 6.1 WNW 9 13 5 7 1015.8 1015.8 0.0
21/04:00pm 21.7 19.2 9.6 46 6.5 W 13 15 7 8 1015.7 1015.7 0.0
21/03:30pm 21.9 19.2 9.1 44 6.8 WNW 13 20 7 11 1015.6 1015.6 0.0
21/03:00pm 22.5 20.0 9.6 44 7.0 WNW 13 24 7 13 1015.5 1015.5 0.0
21/02:30pm 22.6 19.3 9.7 44 7.0 NNW 17 24 9 13 1015.5 1015.5 0.0
21/02:00pm 22.5 18.4 8.6 41 7.4 N 20 32 11 17 1015.7 1015.7 0.0
21/01:30pm 23.1 19.7 9.1 41 7.5 NNW 17 26 9 14 1015.8 1015.8 0.0
21/01:00pm 23.5 19.8 9.5 41 7.6 N 19 28 10 15 1016.2 1016.2 0.0
21/12:30pm 22.3 19.0 9.5 44 6.9 NNW 17 28 9 15 1016.4 1016.4 0.0
21/12:00pm 22.6 20.8 10.7 47 6.6 NNW 11 19 6 10 1016.9 1016.9 0.0
21/11:30am 21.3 18.3 10.5 50 5.9 N 17 26 9 14 1017.3 1017.3 0.0
21/11:00am 20.6 17.5 10.4 52 5.5 N 17 22 9 12 1017.8 1017.8 0.0
21/10:30am 20.4 17.0 10.5 53 5.4 N 19 26 10 14 1018.1 1018.1 0.0
21/10:00am 19.5 16.4 10.2 55 5.0 NNE 17 24 9 13 1018.2 1018.2 0.0
21/09:30am 18.7 15.6 10.3 58 4.5 NNE 17 26 9 14 1018.2 1018.2 0.0
21/09:00am 17.4 15.6 10.8 65 3.5 NE 11 15 6 8 1018.1 1018.1 0.0
21/08:30am 15.8 14.4 11.0 73 2.6 NE 9 13 5 7 1017.9 1017.9 0.0
21/08:00am 12.6 11.2 11.0 90 0.8 NNE 9 11 5 6 1017.6 1017.6 0.0
21/07:30am 9.6 8.0 8.8 95 0.4 NE 7 9 4 5 1017.3 1017.3 0.0
21/07:00am 10.1 8.7 8.9 92 0.6 NE 6 7 3 4 1016.9 1016.9 0.0
21/06:30am 10.4 8.7 8.3 87 1.0 NNE 7 9 4 5 1016.7 1016.7 0.0
21/06:00am 11.2 9.2 8.6 84 1.3 NE 9 13 5 7 1016.6 1016.6 0.0
21/05:30am 12.0 10.1 9.2 83 1.4 NE 9 13 5 7 1016.4 1016.4 0.0
21/05:00am 11.7 10.1 8.7 82 1.5 NE 7 11 4 6 1016.3 1016.3 0.0
21/04:30am 12.6 10.4 9.2 80 1.7 NNE 11 15 6 8 1016.2 1016.2 0.0
21/04:00am 12.7 10.9 9.3 80 1.7 N 9 13 5 7 1016.2 1016.2 0.0
21/03:30am 13.0 11.2 9.4 79 1.8 NE 9 15 5 8 1015.9 1015.9 0.0
21/03:00am 13.8 11.2 9.3 74 2.3 NNE 13 19 7 10 1015.9 1015.9 0.0
21/02:30am 13.6 10.6 9.3 75 2.2 NNE 15 20 8 11 1016.0 1016.0 0.0
21/02:00am 13.5 10.5 9.2 75 2.2 NNE 15 20 8 11 1016.1 1016.1 0.0
21/01:30am 14.8 11.5 9.6 71 2.7 NNE 17 22 9 12 1016.1 1016.1 0.0
21/01:00am 14.1 11.1 9.1 72 2.5 NNE 15 20 8 11 1016.2 1016.2 0.0

Other Formats:

Comma delimited format used in spreadsheet applications
http://www.bom.gov.au/fwo/IDS60801/IDS60801.95677.axf

JavaScript Object Notation format (JSON) in row-major order
http://www.bom.gov.au/fwo/IDS60801/IDS60801.95677.json